sensor_id;sensor_type;location;lat;lon;timestamp;pressure;altitude;pressure_sealevel;temperature;humidity
73422;BME280;61637;47.760;-122.022;2023-08-24T00:00:01;101930.339;;;20.4;63.0
73422;BME280;61637;47.760;-122.022;2023-08-24T00:02:01;101930.339;;;20.4;64.0
73422;BME280;61637;47.760;-122.022;2023-08-24T00:04:01;101930.339;;;20.4;64.0
73422;BME280;61637;47.760;-122.022;2023-08-24T00:06:01;101930.339;;;20.4;61.0
73422;BME280;61637;47.760;-122.022;2023-08-24T00:08:01;101930.339;;;20.4;60.0
73422;BME280;61637;47.760;-122.022;2023-08-24T00:10:01;101930.339;;;20.6;60.0
73422;BME280;61637;47.760;-122.022;2023-08-24T00:12:01;101930.339;;;20.6;62.0
73422;BME280;61637;47.760;-122.022;2023-08-24T00:14:01;101930.339;;;20.6;61.0
73422;BME280;61637;47.760;-122.022;2023-08-24T00:16:01;101930.339;;;20.7;60.0
73422;BME280;61637;47.760;-122.022;2023-08-24T00:18:01;101930.339;;;20.7;58.0
73422;BME280;61637;47.760;-122.022;2023-08-24T00:20:01;101930.339;;;20.7;61.0
73422;BME280;61637;47.760;-122.022;2023-08-24T00:22:01;101930.339;;;20.7;63.0
73422;BME280;61637;47.760;-122.022;2023-08-24T00:24:01;101930.339;;;20.7;61.0
73422;BME280;61637;47.760;-122.022;2023-08-24T00:26:01;101930.339;;;20.7;62.0
73422;BME280;61637;47.760;-122.022;2023-08-24T00:28:01;101930.339;;;20.7;61.0
73422;BME280;61637;47.760;-122.022;2023-08-24T00:30:01;101930.339;;;20.7;60.0
73422;BME280;61637;47.760;-122.022;2023-08-24T00:32:01;101930.339;;;20.8;59.0
73422;BME280;61637;47.760;-122.022;2023-08-24T00:34:01;101930.339;;;20.8;59.0
73422;BME280;61637;47.760;-122.022;2023-08-24T00:36:01;101930.339;;;20.8;61.0
73422;BME280;61637;47.760;-122.022;2023-08-24T00:38:01;101930.339;;;20.8;58.0
73422;BME280;61637;47.760;-122.022;2023-08-24T00:40:01;101930.339;;;20.8;57.0
73422;BME280;61637;47.760;-122.022;2023-08-24T00:42:01;101930.339;;;20.8;59.0
73422;BME280;61637;47.760;-122.022;2023-08-24T00:44:01;101930.339;;;20.9;60.0
73422;BME280;61637;47.760;-122.022;2023-08-24T00:46:01;101930.339;;;20.8;57.0
73422;BME280;61637;47.760;-122.022;2023-08-24T00:48:01;101930.339;;;20.8;58.0
73422;BME280;61637;47.760;-122.022;2023-08-24T00:50:01;101930.339;;;20.8;57.0
73422;BME280;61637;47.760;-122.022;2023-08-24T00:52:01;101930.339;;;20.7;59.0
73422;BME280;61637;47.760;-122.022;2023-08-24T00:54:01;101930.339;;;20.7;60.0
73422;BME280;61637;47.760;-122.022;2023-08-24T00:56:01;101930.339;;;20.7;61.0
73422;BME280;61637;47.760;-122.022;2023-08-24T00:58:01;101930.339;;;20.7;62.0
73422;BME280;61637;47.760;-122.022;2023-08-24T01:00:02;101930.339;;;20.7;61.0
73422;BME280;61637;47.760;-122.022;2023-08-24T01:02:01;101930.339;;;20.7;63.0
73422;BME280;61637;47.760;-122.022;2023-08-24T01:04:01;101930.339;;;20.6;62.0
73422;BME280;61637;47.760;-122.022;2023-08-24T01:06:01;101930.339;;;20.6;62.0
73422;BME280;61637;47.760;-122.022;2023-08-24T01:08:01;101930.339;;;20.4;62.0
73422;BME280;61637;47.760;-122.022;2023-08-24T01:10:01;101930.339;;;20.4;62.0
73422;BME280;61637;47.760;-122.022;2023-08-24T01:12:02;101930.339;;;20.3;62.0
73422;BME280;61637;47.760;-122.022;2023-08-24T01:14:04;101930.339;;;20.3;63.0
73422;BME280;61637;47.760;-122.022;2023-08-24T01:16:03;101930.339;;;20.2;63.0
73422;BME280;61637;47.760;-122.022;2023-08-24T01:18:02;101930.339;;;20.2;64.0
73422;BME280;61637;47.760;-122.022;2023-08-24T01:20:01;101930.339;;;20.1;65.0
73422;BME280;61637;47.760;-122.022;2023-08-24T01:22:02;101930.339;;;20.1;65.0
73422;BME280;61637;47.760;-122.022;2023-08-24T01:24:02;101930.339;;;20.1;65.0
73422;BME280;61637;47.760;-122.022;2023-08-24T01:26:03;101930.339;;;20.0;66.0
73422;BME280;61637;47.760;-122.022;2023-08-24T01:28:01;101930.339;;;19.9;65.0
73422;BME280;61637;47.760;-122.022;2023-08-24T01:30:01;101930.339;;;19.9;65.0
73422;BME280;61637;47.760;-122.022;2023-08-24T01:32:01;101930.339;;;19.9;65.0
73422;BME280;61637;47.760;-122.022;2023-08-24T01:34:01;101930.339;;;19.9;64.0
73422;BME280;61637;47.760;-122.022;2023-08-24T01:36:01;101930.339;;;19.9;66.0
73422;BME280;61637;47.760;-122.022;2023-08-24T01:38:01;101930.339;;;19.9;66.0
73422;BME280;61637;47.760;-122.022;2023-08-24T01:40:02;101930.339;;;19.8;66.0
73422;BME280;61637;47.760;-122.022;2023-08-24T01:42:02;101930.339;;;19.8;66.0
73422;BME280;61637;47.760;-122.022;2023-08-24T01:44:01;101930.339;;;19.8;67.0
73422;BME280;61637;47.760;-122.022;2023-08-24T01:46:01;101930.339;;;19.7;67.0
73422;BME280;61637;47.760;-122.022;2023-08-24T01:48:01;101930.339;;;19.7;67.0
73422;BME280;61637;47.760;-122.022;2023-08-24T01:50:01;101930.339;;;19.6;69.0
73422;BME280;61637;47.760;-122.022;2023-08-24T01:52:01;101930.339;;;19.5;69.0
73422;BME280;61637;47.760;-122.022;2023-08-24T01:54:01;101930.339;;;19.4;69.0
73422;BME280;61637;47.760;-122.022;2023-08-24T01:56:01;101930.339;;;19.3;68.0
73422;BME280;61637;47.760;-122.022;2023-08-24T01:58:01;101930.339;;;19.3;69.0
73422;BME280;61637;47.760;-122.022;2023-08-24T02:00:01;101930.339;;;19.2;68.0
73422;BME280;61637;47.760;-122.022;2023-08-24T02:02:01;101930.339;;;19.2;70.0
73422;BME280;61637;47.760;-122.022;2023-08-24T02:04:01;101930.339;;;19.1;70.0
73422;BME280;61637;47.760;-122.022;2023-08-24T02:06:01;101930.339;;;19.0;70.0
73422;BME280;61637;47.760;-122.022;2023-08-24T02:08:01;101930.339;;;18.9;72.0
73422;BME280;61637;47.760;-122.022;2023-08-24T02:10:01;101930.339;;;18.9;73.0
73422;BME280;61637;47.760;-122.022;2023-08-24T02:12:01;101930.339;;;18.8;72.0
73422;BME280;61637;47.760;-122.022;2023-08-24T02:14:01;101930.339;;;18.8;72.0
73422;BME280;61637;47.760;-122.022;2023-08-24T02:16:01;101930.339;;;18.8;72.0
73422;BME280;61637;47.760;-122.022;2023-08-24T02:18:01;101930.339;;;18.7;71.0
73422;BME280;61637;47.760;-122.022;2023-08-24T02:20:01;101930.339;;;18.7;73.0
73422;BME280;61637;47.760;-122.022;2023-08-24T02:22:01;101930.339;;;18.6;72.0
73422;BME280;61637;47.760;-122.022;2023-08-24T02:24:01;101930.339;;;18.6;73.0
73422;BME280;61637;47.760;-122.022;2023-08-24T02:26:01;101930.339;;;18.5;73.0
73422;BME280;61637;47.760;-122.022;2023-08-24T02:28:01;101930.339;;;18.4;74.0
73422;BME280;61637;47.760;-122.022;2023-08-24T02:30:01;101930.339;;;18.4;73.0
73422;BME280;61637;47.760;-122.022;2023-08-24T02:32:01;101930.339;;;18.3;74.0
73422;BME280;61637;47.760;-122.022;2023-08-24T02:34:01;101930.339;;;18.3;74.0
73422;BME280;61637;47.760;-122.022;2023-08-24T02:36:01;101930.339;;;18.2;72.0
73422;BME280;61637;47.760;-122.022;2023-08-24T02:38:01;101930.339;;;18.1;73.0
73422;BME280;61637;47.760;-122.022;2023-08-24T02:40:01;101930.339;;;18.1;74.0
73422;BME280;61637;47.760;-122.022;2023-08-24T02:42:01;101930.339;;;18.0;73.0
73422;BME280;61637;47.760;-122.022;2023-08-24T02:44:01;101930.339;;;17.9;74.0
73422;BME280;61637;47.760;-122.022;2023-08-24T02:46:01;101930.339;;;17.9;74.0
73422;BME280;61637;47.760;-122.022;2023-08-24T02:48:01;101930.339;;;17.8;75.0
73422;BME280;61637;47.760;-122.022;2023-08-24T02:50:01;101930.339;;;17.8;75.0
73422;BME280;61637;47.760;-122.022;2023-08-24T02:52:01;101930.339;;;17.7;75.0
73422;BME280;61637;47.760;-122.022;2023-08-24T02:54:01;101930.339;;;17.7;75.0
73422;BME280;61637;47.760;-122.022;2023-08-24T02:56:01;101930.339;;;17.6;73.0
73422;BME280;61637;47.760;-122.022;2023-08-24T02:58:01;101930.339;;;17.6;74.0
73422;BME280;61637;47.760;-122.022;2023-08-24T03:00:01;101930.339;;;17.4;74.0
73422;BME280;61637;47.760;-122.022;2023-08-24T03:02:01;101930.339;;;17.4;74.0
73422;BME280;61637;47.760;-122.022;2023-08-24T03:04:01;101930.339;;;17.4;74.0
73422;BME280;61637;47.760;-122.022;2023-08-24T03:06:01;101930.339;;;17.3;74.0
73422;BME280;61637;47.760;-122.022;2023-08-24T03:08:01;101930.339;;;17.3;73.0
73422;BME280;61637;47.760;-122.022;2023-08-24T03:10:01;101930.339;;;17.2;74.0
73422;BME280;61637;47.760;-122.022;2023-08-24T03:12:01;101930.339;;;17.1;74.0
73422;BME280;61637;47.760;-122.022;2023-08-24T03:14:01;101930.339;;;17.1;75.0
73422;BME280;61637;47.760;-122.022;2023-08-24T03:16:03;101930.339;;;17.0;75.0
73422;BME280;61637;47.760;-122.022;2023-08-24T03:18:01;101930.339;;;16.9;75.0
73422;BME280;61637;47.760;-122.022;2023-08-24T03:20:01;101930.339;;;16.9;76.0
73422;BME280;61637;47.760;-122.022;2023-08-24T03:22:01;101930.339;;;16.8;75.0
73422;BME280;61637;47.760;-122.022;2023-08-24T03:24:01;101930.339;;;16.7;76.0
73422;BME280;61637;47.760;-122.022;2023-08-24T03:26:01;101930.339;;;16.7;76.0
73422;BME280;61637;47.760;-122.022;2023-08-24T03:28:01;101930.339;;;16.7;76.0
73422;BME280;61637;47.760;-122.022;2023-08-24T03:30:01;101930.339;;;16.6;76.0
73422;BME280;61637;47.760;-122.022;2023-08-24T03:32:01;101930.339;;;16.6;76.0
73422;BME280;61637;47.760;-122.022;2023-08-24T03:34:01;101930.339;;;16.4;77.0
73422;BME280;61637;47.760;-122.022;2023-08-24T03:36:01;101930.339;;;16.4;78.0
73422;BME280;61637;47.760;-122.022;2023-08-24T03:38:01;101930.339;;;16.3;77.0
73422;BME280;61637;47.760;-122.022;2023-08-24T03:40:01;101930.339;;;16.3;77.0
73422;BME280;61637;47.760;-122.022;2023-08-24T03:42:01;101930.339;;;16.3;78.0
73422;BME280;61637;47.760;-122.022;2023-08-24T03:44:01;101930.339;;;16.2;78.0
73422;BME280;61637;47.760;-122.022;2023-08-24T03:46:01;101930.339;;;16.2;78.0
73422;BME280;61637;47.760;-122.022;2023-08-24T03:48:01;101930.339;;;16.1;78.0
73422;BME280;61637;47.760;-122.022;2023-08-24T03:50:01;101930.339;;;16.0;78.0
73422;BME280;61637;47.760;-122.022;2023-08-24T03:52:01;101930.339;;;15.9;78.0
73422;BME280;61637;47.760;-122.022;2023-08-24T03:54:01;101930.339;;;15.9;79.0
73422;BME280;61637;47.760;-122.022;2023-08-24T03:56:01;101930.339;;;15.9;79.0
73422;BME280;61637;47.760;-122.022;2023-08-24T03:58:01;101930.339;;;15.8;79.0
73422;BME280;61637;47.760;-122.022;2023-08-24T04:00:01;101930.339;;;15.8;79.0
73422;BME280;61637;47.760;-122.022;2023-08-24T04:02:01;101930.339;;;15.7;79.0
73422;BME280;61637;47.760;-122.022;2023-08-24T04:04:01;101930.339;;;15.7;79.0
73422;BME280;61637;47.760;-122.022;2023-08-24T04:06:01;101930.339;;;15.7;80.0
73422;BME280;61637;47.760;-122.022;2023-08-24T04:08:01;101930.339;;;15.6;80.0
73422;BME280;61637;47.760;-122.022;2023-08-24T04:10:01;101930.339;;;15.6;80.0
73422;BME280;61637;47.760;-122.022;2023-08-24T04:12:01;101930.339;;;15.6;81.0
73422;BME280;61637;47.760;-122.022;2023-08-24T04:14:01;101930.339;;;15.5;81.0
73422;BME280;61637;47.760;-122.022;2023-08-24T04:16:01;101930.339;;;15.4;80.0
73422;BME280;61637;47.760;-122.022;2023-08-24T04:18:01;101930.339;;;15.4;80.0
73422;BME280;61637;47.760;-122.022;2023-08-24T04:20:01;101930.339;;;15.4;80.0
73422;BME280;61637;47.760;-122.022;2023-08-24T04:22:01;101930.339;;;15.3;81.0
73422;BME280;61637;47.760;-122.022;2023-08-24T04:24:01;101930.339;;;15.3;81.0
73422;BME280;61637;47.760;-122.022;2023-08-24T04:26:01;101930.339;;;15.3;81.0
73422;BME280;61637;47.760;-122.022;2023-08-24T04:28:02;101930.339;;;15.2;81.0
73422;BME280;61637;47.760;-122.022;2023-08-24T04:30:01;101930.339;;;15.2;81.0
73422;BME280;61637;47.760;-122.022;2023-08-24T04:32:01;101930.339;;;15.2;81.0
73422;BME280;61637;47.760;-122.022;2023-08-24T04:34:01;101930.339;;;15.1;82.0
73422;BME280;61637;47.760;-122.022;2023-08-24T04:36:01;101930.339;;;15.1;82.0
73422;BME280;61637;47.760;-122.022;2023-08-24T04:38:01;101930.339;;;15.1;82.0
73422;BME280;61637;47.760;-122.022;2023-08-24T04:40:01;101930.339;;;15.0;82.0
73422;BME280;61637;47.760;-122.022;2023-08-24T04:42:01;101930.339;;;15.0;82.0
73422;BME280;61637;47.760;-122.022;2023-08-24T04:44:01;101930.339;;;14.9;82.0
73422;BME280;61637;47.760;-122.022;2023-08-24T04:46:01;101930.339;;;14.9;83.0
73422;BME280;61637;47.760;-122.022;2023-08-24T04:48:01;101930.339;;;14.9;83.0
73422;BME280;61637;47.760;-122.022;2023-08-24T04:50:01;101930.339;;;14.8;82.0
73422;BME280;61637;47.760;-122.022;2023-08-24T04:52:01;101930.339;;;14.8;83.0
73422;BME280;61637;47.760;-122.022;2023-08-24T04:54:01;101930.339;;;14.8;82.0
73422;BME280;61637;47.760;-122.022;2023-08-24T04:56:01;101930.339;;;14.7;83.0
73422;BME280;61637;47.760;-122.022;2023-08-24T04:58:01;101930.339;;;14.7;83.0
73422;BME280;61637;47.760;-122.022;2023-08-24T05:00:01;101930.339;;;14.7;83.0
73422;BME280;61637;47.760;-122.022;2023-08-24T05:02:01;101930.339;;;14.6;83.0
73422;BME280;61637;47.760;-122.022;2023-08-24T05:04:01;101930.339;;;14.6;83.0
73422;BME280;61637;47.760;-122.022;2023-08-24T05:06:01;101930.339;;;14.6;83.0
73422;BME280;61637;47.760;-122.022;2023-08-24T05:08:01;101930.339;;;14.6;83.0
73422;BME280;61637;47.760;-122.022;2023-08-24T05:10:01;101930.339;;;14.5;83.0
73422;BME280;61637;47.760;-122.022;2023-08-24T05:12:01;101930.339;;;14.5;84.0
73422;BME280;61637;47.760;-122.022;2023-08-24T05:14:01;101930.339;;;14.4;84.0
73422;BME280;61637;47.760;-122.022;2023-08-24T05:16:01;101930.339;;;14.4;84.0
73422;BME280;61637;47.760;-122.022;2023-08-24T05:18:01;101930.339;;;14.4;84.0
73422;BME280;61637;47.760;-122.022;2023-08-24T05:20:01;101930.339;;;14.4;84.0
73422;BME280;61637;47.760;-122.022;2023-08-24T05:22:01;101930.339;;;14.3;84.0
73422;BME280;61637;47.760;-122.022;2023-08-24T05:24:01;101930.339;;;14.3;84.0
73422;BME280;61637;47.760;-122.022;2023-08-24T05:26:02;101930.339;;;14.3;84.0
73422;BME280;61637;47.760;-122.022;2023-08-24T05:28:01;101930.339;;;14.3;85.0
73422;BME280;61637;47.760;-122.022;2023-08-24T05:30:01;101930.339;;;14.2;84.0
73422;BME280;61637;47.760;-122.022;2023-08-24T05:32:01;101930.339;;;14.2;84.0
73422;BME280;61637;47.760;-122.022;2023-08-24T05:34:01;101930.339;;;14.2;85.0
73422;BME280;61637;47.760;-122.022;2023-08-24T05:36:01;101930.339;;;14.1;85.0
73422;BME280;61637;47.760;-122.022;2023-08-24T05:38:01;101930.339;;;14.1;85.0
73422;BME280;61637;47.760;-122.022;2023-08-24T05:40:01;101930.339;;;14.1;85.0
73422;BME280;61637;47.760;-122.022;2023-08-24T05:42:01;101930.339;;;14.1;85.0
73422;BME280;61637;47.760;-122.022;2023-08-24T05:44:01;101930.339;;;14.0;85.0
73422;BME280;61637;47.760;-122.022;2023-08-24T05:46:01;101930.339;;;14.0;85.0
73422;BME280;61637;47.760;-122.022;2023-08-24T05:48:01;101930.339;;;13.9;85.0
73422;BME280;61637;47.760;-122.022;2023-08-24T05:50:01;101930.339;;;13.9;85.0
73422;BME280;61637;47.760;-122.022;2023-08-24T05:52:01;101930.339;;;13.9;85.0
73422;BME280;61637;47.760;-122.022;2023-08-24T05:54:01;101930.339;;;13.9;85.0
73422;BME280;61637;47.760;-122.022;2023-08-24T05:56:01;101930.339;;;13.9;86.0
73422;BME280;61637;47.760;-122.022;2023-08-24T05:58:01;101930.339;;;13.8;86.0
73422;BME280;61637;47.760;-122.022;2023-08-24T06:00:01;101930.339;;;13.8;86.0
73422;BME280;61637;47.760;-122.022;2023-08-24T06:02:01;101930.339;;;13.8;86.0
73422;BME280;61637;47.760;-122.022;2023-08-24T06:04:01;101930.339;;;13.8;86.0
73422;BME280;61637;47.760;-122.022;2023-08-24T06:06:01;101930.339;;;13.7;86.0
73422;BME280;61637;47.760;-122.022;2023-08-24T06:08:01;101930.339;;;13.7;86.0
73422;BME280;61637;47.760;-122.022;2023-08-24T06:10:01;101930.339;;;13.7;86.0
73422;BME280;61637;47.760;-122.022;2023-08-24T06:12:01;101930.339;;;13.7;86.0
73422;BME280;61637;47.760;-122.022;2023-08-24T06:14:01;101930.339;;;13.6;86.0
73422;BME280;61637;47.760;-122.022;2023-08-24T06:16:01;101930.339;;;13.6;86.0
73422;BME280;61637;47.760;-122.022;2023-08-24T06:18:01;101930.339;;;13.6;86.0
73422;BME280;61637;47.760;-122.022;2023-08-24T06:20:01;101930.339;;;13.6;86.0
73422;BME280;61637;47.760;-122.022;2023-08-24T06:22:01;101930.339;;;13.5;86.0
73422;BME280;61637;47.760;-122.022;2023-08-24T06:24:01;101930.339;;;13.5;86.0
73422;BME280;61637;47.760;-122.022;2023-08-24T06:26:01;101930.339;;;13.5;87.0
73422;BME280;61637;47.760;-122.022;2023-08-24T06:28:01;101930.339;;;13.4;87.0
73422;BME280;61637;47.760;-122.022;2023-08-24T06:30:01;101930.339;;;13.4;87.0
73422;BME280;61637;47.760;-122.022;2023-08-24T06:32:01;101930.339;;;13.4;87.0
73422;BME280;61637;47.760;-122.022;2023-08-24T06:34:01;101930.339;;;13.4;87.0
73422;BME280;61637;47.760;-122.022;2023-08-24T06:36:01;101930.339;;;13.4;87.0
73422;BME280;61637;47.760;-122.022;2023-08-24T06:38:01;101930.339;;;13.4;87.0
73422;BME280;61637;47.760;-122.022;2023-08-24T06:40:01;101930.339;;;13.4;87.0
73422;BME280;61637;47.760;-122.022;2023-08-24T06:42:01;101930.339;;;13.3;87.0
73422;BME280;61637;47.760;-122.022;2023-08-24T06:44:01;101930.339;;;13.3;87.0
73422;BME280;61637;47.760;-122.022;2023-08-24T06:46:01;101930.339;;;13.3;87.0
73422;BME280;61637;47.760;-122.022;2023-08-24T06:48:01;101930.339;;;13.3;87.0
73422;BME280;61637;47.760;-122.022;2023-08-24T06:50:01;101930.339;;;13.2;87.0
73422;BME280;61637;47.760;-122.022;2023-08-24T06:52:01;101930.339;;;13.2;87.0
73422;BME280;61637;47.760;-122.022;2023-08-24T06:54:01;101930.339;;;13.2;87.0
73422;BME280;61637;47.760;-122.022;2023-08-24T06:56:01;101930.339;;;13.2;87.0
73422;BME280;61637;47.760;-122.022;2023-08-24T06:58:01;101930.339;;;13.2;87.0
73422;BME280;61637;47.760;-122.022;2023-08-24T07:00:01;101930.339;;;13.2;88.0
73422;BME280;61637;47.760;-122.022;2023-08-24T07:02:01;101930.339;;;13.2;88.0
73422;BME280;61637;47.760;-122.022;2023-08-24T07:04:01;101930.339;;;13.2;88.0
73422;BME280;61637;47.760;-122.022;2023-08-24T07:06:01;101930.339;;;13.2;88.0
73422;BME280;61637;47.760;-122.022;2023-08-24T07:08:01;101930.339;;;13.1;88.0
73422;BME280;61637;47.760;-122.022;2023-08-24T07:10:01;101930.339;;;13.1;88.0
73422;BME280;61637;47.760;-122.022;2023-08-24T07:12:01;101930.339;;;13.1;88.0
73422;BME280;61637;47.760;-122.022;2023-08-24T07:14:01;101930.339;;;13.1;88.0
73422;BME280;61637;47.760;-122.022;2023-08-24T07:16:01;101930.339;;;13.1;88.0
73422;BME280;61637;47.760;-122.022;2023-08-24T07:18:01;101930.339;;;13.1;88.0
73422;BME280;61637;47.760;-122.022;2023-08-24T07:20:01;101930.339;;;13.1;88.0
73422;BME280;61637;47.760;-122.022;2023-08-24T07:22:01;101930.339;;;13.1;88.0
73422;BME280;61637;47.760;-122.022;2023-08-24T07:24:01;101930.339;;;13.1;88.0
73422;BME280;61637;47.760;-122.022;2023-08-24T07:26:01;101930.339;;;13.0;88.0
73422;BME280;61637;47.760;-122.022;2023-08-24T07:28:01;101930.339;;;13.0;88.0
73422;BME280;61637;47.760;-122.022;2023-08-24T07:30:01;101930.339;;;12.9;89.0
73422;BME280;61637;47.760;-122.022;2023-08-24T07:32:01;101930.339;;;12.9;89.0
73422;BME280;61637;47.760;-122.022;2023-08-24T07:34:01;101930.339;;;12.9;89.0
73422;BME280;61637;47.760;-122.022;2023-08-24T07:36:01;101930.339;;;12.9;89.0
73422;BME280;61637;47.760;-122.022;2023-08-24T07:38:01;101930.339;;;12.9;89.0
73422;BME280;61637;47.760;-122.022;2023-08-24T07:40:01;101930.339;;;12.9;89.0
73422;BME280;61637;47.760;-122.022;2023-08-24T07:42:01;101930.339;;;12.8;89.0
73422;BME280;61637;47.760;-122.022;2023-08-24T07:44:01;101930.339;;;12.8;89.0
73422;BME280;61637;47.760;-122.022;2023-08-24T07:46:01;101930.339;;;12.8;89.0
73422;BME280;61637;47.760;-122.022;2023-08-24T07:48:01;101930.339;;;12.8;90.0
73422;BME280;61637;47.760;-122.022;2023-08-24T07:50:01;101930.339;;;12.8;90.0
73422;BME280;61637;47.760;-122.022;2023-08-24T07:52:01;101930.339;;;12.8;90.0
73422;BME280;61637;47.760;-122.022;2023-08-24T07:54:01;101930.339;;;12.8;90.0
73422;BME280;61637;47.760;-122.022;2023-08-24T07:56:01;101930.339;;;12.7;90.0
73422;BME280;61637;47.760;-122.022;2023-08-24T07:58:01;101930.339;;;12.7;90.0
73422;BME280;61637;47.760;-122.022;2023-08-24T08:00:01;101930.339;;;12.7;90.0
73422;BME280;61637;47.760;-122.022;2023-08-24T08:02:01;101930.339;;;12.7;90.0
73422;BME280;61637;47.760;-122.022;2023-08-24T08:04:01;101930.339;;;12.7;90.0
73422;BME280;61637;47.760;-122.022;2023-08-24T08:06:01;101930.339;;;12.6;91.0
73422;BME280;61637;47.760;-122.022;2023-08-24T08:08:01;101930.339;;;12.6;91.0
73422;BME280;61637;47.760;-122.022;2023-08-24T08:10:01;101930.339;;;12.6;91.0
73422;BME280;61637;47.760;-122.022;2023-08-24T08:12:01;101930.339;;;12.5;91.0
73422;BME280;61637;47.760;-122.022;2023-08-24T08:14:01;101930.339;;;12.5;91.0
73422;BME280;61637;47.760;-122.022;2023-08-24T08:16:01;101930.339;;;12.5;91.0
73422;BME280;61637;47.760;-122.022;2023-08-24T08:18:01;101930.339;;;12.4;91.0
73422;BME280;61637;47.760;-122.022;2023-08-24T08:20:01;101930.339;;;12.4;91.0
73422;BME280;61637;47.760;-122.022;2023-08-24T08:22:01;101930.339;;;12.4;91.0
73422;BME280;61637;47.760;-122.022;2023-08-24T08:24:01;101930.339;;;12.4;91.0
73422;BME280;61637;47.760;-122.022;2023-08-24T08:26:01;101930.339;;;12.4;91.0
73422;BME280;61637;47.760;-122.022;2023-08-24T08:28:01;101930.339;;;12.4;91.0
73422;BME280;61637;47.760;-122.022;2023-08-24T08:30:01;101930.339;;;12.4;91.0
73422;BME280;61637;47.760;-122.022;2023-08-24T08:32:01;101930.339;;;12.4;91.0
73422;BME280;61637;47.760;-122.022;2023-08-24T08:34:02;101930.339;;;12.3;91.0
73422;BME280;61637;47.760;-122.022;2023-08-24T08:36:01;101930.339;;;12.3;91.0
73422;BME280;61637;47.760;-122.022;2023-08-24T08:38:01;101930.339;;;12.3;91.0
73422;BME280;61637;47.760;-122.022;2023-08-24T08:40:01;101930.339;;;12.3;91.0
73422;BME280;61637;47.760;-122.022;2023-08-24T08:42:01;101930.339;;;12.3;91.0
73422;BME280;61637;47.760;-122.022;2023-08-24T08:44:04;101930.339;;;12.3;91.0
73422;BME280;61637;47.760;-122.022;2023-08-24T08:46:01;101930.339;;;12.3;91.0
73422;BME280;61637;47.760;-122.022;2023-08-24T08:48:01;101930.339;;;12.3;91.0
73422;BME280;61637;47.760;-122.022;2023-08-24T08:50:01;101930.339;;;12.3;91.0
73422;BME280;61637;47.760;-122.022;2023-08-24T08:52:01;101930.339;;;12.2;91.0
73422;BME280;61637;47.760;-122.022;2023-08-24T08:54:01;101930.339;;;12.2;91.0
73422;BME280;61637;47.760;-122.022;2023-08-24T08:56:01;101930.339;;;12.2;91.0
73422;BME280;61637;47.760;-122.022;2023-08-24T08:58:01;101930.339;;;12.2;91.0
73422;BME280;61637;47.760;-122.022;2023-08-24T09:00:01;101930.339;;;12.2;91.0
73422;BME280;61637;47.760;-122.022;2023-08-24T09:02:01;101930.339;;;12.2;92.0
73422;BME280;61637;47.760;-122.022;2023-08-24T09:04:01;101930.339;;;12.2;91.0
73422;BME280;61637;47.760;-122.022;2023-08-24T09:06:01;101930.339;;;12.1;91.0
73422;BME280;61637;47.760;-122.022;2023-08-24T09:08:01;101930.339;;;12.1;91.0
73422;BME280;61637;47.760;-122.022;2023-08-24T09:10:01;101930.339;;;12.1;91.0
73422;BME280;61637;47.760;-122.022;2023-08-24T09:12:01;101930.339;;;12.1;91.0
73422;BME280;61637;47.760;-122.022;2023-08-24T09:14:01;101930.339;;;12.1;91.0
73422;BME280;61637;47.760;-122.022;2023-08-24T09:16:04;101930.339;;;12.1;92.0
73422;BME280;61637;47.760;-122.022;2023-08-24T09:18:01;101930.339;;;12.1;92.0
73422;BME280;61637;47.760;-122.022;2023-08-24T09:20:06;101930.339;;;12.0;92.0
73422;BME280;61637;47.760;-122.022;2023-08-24T09:22:01;101930.339;;;11.9;92.0
73422;BME280;61637;47.760;-122.022;2023-08-24T09:24:01;101930.339;;;12.0;92.0
73422;BME280;61637;47.760;-122.022;2023-08-24T09:26:01;101930.339;;;11.9;92.0
73422;BME280;61637;47.760;-122.022;2023-08-24T09:28:01;101930.339;;;11.9;92.0
73422;BME280;61637;47.760;-122.022;2023-08-24T09:30:01;101930.339;;;11.9;92.0
73422;BME280;61637;47.760;-122.022;2023-08-24T09:32:01;101930.339;;;11.9;92.0
73422;BME280;61637;47.760;-122.022;2023-08-24T09:34:01;101930.339;;;11.8;92.0
73422;BME280;61637;47.760;-122.022;2023-08-24T09:36:01;101930.339;;;11.8;92.0
73422;BME280;61637;47.760;-122.022;2023-08-24T09:38:01;101930.339;;;11.8;92.0
73422;BME280;61637;47.760;-122.022;2023-08-24T09:40:01;101930.339;;;11.8;92.0
73422;BME280;61637;47.760;-122.022;2023-08-24T09:42:01;101930.339;;;11.8;92.0
73422;BME280;61637;47.760;-122.022;2023-08-24T09:44:03;101930.339;;;11.7;92.0
73422;BME280;61637;47.760;-122.022;2023-08-24T09:46:01;101930.339;;;11.7;92.0
73422;BME280;61637;47.760;-122.022;2023-08-24T09:48:01;101930.339;;;11.7;92.0
73422;BME280;61637;47.760;-122.022;2023-08-24T09:50:01;101930.339;;;11.7;92.0
73422;BME280;61637;47.760;-122.022;2023-08-24T09:52:01;101930.339;;;11.7;92.0
73422;BME280;61637;47.760;-122.022;2023-08-24T09:54:03;101930.339;;;11.7;92.0
73422;BME280;61637;47.760;-122.022;2023-08-24T09:56:01;101930.339;;;11.7;92.0
73422;BME280;61637;47.760;-122.022;2023-08-24T09:58:01;101930.339;;;11.6;93.0
73422;BME280;61637;47.760;-122.022;2023-08-24T10:00:01;101930.339;;;11.7;93.0
73422;BME280;61637;47.760;-122.022;2023-08-24T10:02:01;101930.339;;;11.7;93.0
73422;BME280;61637;47.760;-122.022;2023-08-24T10:04:01;101930.339;;;11.7;93.0
73422;BME280;61637;47.760;-122.022;2023-08-24T10:06:01;101930.339;;;11.6;93.0
73422;BME280;61637;47.760;-122.022;2023-08-24T10:08:01;101930.339;;;11.6;93.0
73422;BME280;61637;47.760;-122.022;2023-08-24T10:10:02;101930.339;;;11.6;93.0